createdAt,value
2023-12-11T00:00:15.376Z,614.00
2023-12-11T00:01:15.492Z,614.00
2023-12-11T00:02:15.408Z,611.00
2023-12-11T00:03:15.444Z,611.00
2023-12-11T00:04:15.534Z,615.00
2023-12-11T00:05:15.506Z,615.00
2023-12-11T00:06:15.472Z,612.00
2023-12-11T00:07:15.534Z,615.00
2023-12-11T00:08:15.489Z,613.00
2023-12-11T00:09:15.493Z,613.00
2023-12-11T00:10:15.603Z,613.00
2023-12-11T00:11:15.536Z,612.00
2023-12-11T00:12:15.564Z,615.00
2023-12-11T00:13:15.613Z,614.00
2023-12-11T00:14:15.615Z,613.00
2023-12-11T00:15:15.640Z,614.00
2023-12-11T00:16:15.639Z,614.00
2023-12-11T00:17:15.650Z,617.00
2023-12-11T00:18:15.724Z,612.00
2023-12-11T00:19:15.872Z,612.00
2023-12-11T00:20:15.693Z,614.00
2023-12-11T00:21:15.722Z,611.00
2023-12-11T00:22:15.778Z,614.00
2023-12-11T00:23:15.768Z,615.00
2023-12-11T00:24:15.765Z,615.00
2023-12-11T00:25:15.803Z,616.00
2023-12-11T00:26:15.807Z,614.00
2023-12-11T00:27:15.822Z,616.00
2023-12-11T00:28:15.915Z,614.00
2023-12-11T00:29:15.851Z,611.00
2023-12-11T00:30:15.901Z,612.00
2023-12-11T00:31:16.016Z,616.00
2023-12-11T00:32:15.905Z,613.00
2023-12-11T00:33:16.005Z,615.00
2023-12-11T00:34:16.010Z,614.00
2023-12-11T00:35:15.965Z,614.00
2023-12-11T00:36:15.987Z,615.00
2023-12-11T00:37:16.002Z,613.00
2023-12-11T00:38:16.020Z,617.00
2023-12-11T00:39:16.027Z,617.00
2023-12-11T00:40:16.094Z,617.00
2023-12-11T00:41:16.065Z,614.00
2023-12-11T00:42:16.076Z,617.00
2023-12-11T00:43:16.139Z,619.00
2023-12-11T00:44:16.104Z,615.00
2023-12-11T00:45:16.115Z,613.00
2023-12-11T00:46:16.153Z,611.00
2023-12-11T00:47:16.274Z,615.00
2023-12-11T00:48:16.236Z,613.00
2023-12-11T00:49:16.320Z,613.00
2023-12-11T00:50:16.246Z,614.00
2023-12-11T00:51:16.243Z,612.00
2023-12-11T00:52:16.283Z,614.00
2023-12-11T00:53:16.280Z,614.00
2023-12-11T00:54:16.307Z,615.00
2023-12-11T00:55:16.366Z,614.00
2023-12-11T00:56:16.471Z,613.00
2023-12-11T00:57:16.340Z,615.00
2023-12-11T00:58:16.504Z,615.00
2023-12-11T00:59:16.449Z,612.00
2023-12-11T01:00:16.398Z,612.00
2023-12-11T01:01:16.478Z,615.00
2023-12-11T01:02:16.403Z,613.00
2023-12-11T01:03:16.459Z,610.00
2023-12-11T01:04:16.481Z,614.00
2023-12-11T01:05:16.506Z,612.00
2023-12-11T01:06:16.453Z,618.00
2023-12-11T01:07:16.555Z,614.00
2023-12-11T01:08:16.519Z,616.00
2023-12-11T01:09:16.540Z,614.00
2023-12-11T01:10:16.590Z,613.00
2023-12-11T01:11:16.568Z,613.00
2023-12-11T01:12:16.588Z,614.00
2023-12-11T01:13:16.590Z,614.00
2023-12-11T01:14:16.596Z,613.00
2023-12-11T01:15:16.626Z,612.00
2023-12-11T01:16:16.745Z,617.00
2023-12-11T01:17:37.268Z,613.00
2023-12-11T01:18:17.719Z,614.00
2023-12-11T01:19:16.791Z,614.00
2023-12-11T01:20:16.678Z,614.00
2023-12-11T01:21:16.650Z,613.00
2023-12-11T01:22:16.649Z,620.00
2023-12-11T01:23:16.680Z,616.00
2023-12-11T01:24:16.651Z,613.00
2023-12-11T01:25:16.734Z,614.00
2023-12-11T01:26:16.657Z,616.00
2023-12-11T01:27:16.669Z,616.00
2023-12-11T01:28:16.710Z,615.00
2023-12-11T01:29:16.668Z,614.00
2023-12-11T01:30:16.670Z,615.00
2023-12-11T01:31:16.754Z,616.00
2023-12-11T01:32:16.682Z,612.00
2023-12-11T01:33:16.811Z,614.00
2023-12-11T01:34:16.752Z,617.00
2023-12-11T01:35:16.719Z,613.00
2023-12-11T01:36:16.690Z,610.00
2023-12-11T01:37:16.706Z,614.00
2023-12-11T01:38:16.700Z,616.00
2023-12-11T01:39:16.698Z,610.00
2023-12-11T01:40:16.796Z,614.00
2023-12-11T01:41:16.715Z,613.00
2023-12-11T01:42:16.720Z,614.00
2023-12-11T01:43:18.839Z,614.00
2023-12-11T01:44:16.774Z,615.00
2023-12-11T01:45:16.730Z,614.00
2023-12-11T01:46:16.775Z,611.00
2023-12-11T01:47:16.795Z,615.00
2023-12-11T01:48:17.003Z,616.00
2023-12-11T01:49:16.926Z,614.00
2023-12-11T01:50:16.753Z,617.00
2023-12-11T01:51:16.764Z,618.00
2023-12-11T01:52:16.787Z,614.00
2023-12-11T01:53:16.771Z,612.00
2023-12-11T01:54:16.777Z,612.00
2023-12-11T01:55:16.769Z,619.00
2023-12-11T01:56:16.771Z,616.00
2023-12-11T01:57:16.764Z,612.00
2023-12-11T01:58:16.796Z,614.00
2023-12-11T01:59:16.807Z,611.00
2023-12-11T02:00:16.785Z,615.00
2023-12-11T02:01:16.883Z,619.00
2023-12-11T02:02:16.788Z,617.00
2023-12-11T02:03:16.892Z,613.00
2023-12-11T02:04:16.859Z,614.00
2023-12-11T02:05:16.816Z,616.00
2023-12-11T02:06:16.789Z,613.00
2023-12-11T02:07:16.791Z,614.00
2023-12-11T02:08:16.765Z,612.00
2023-12-11T02:09:16.776Z,617.00
2023-12-11T02:10:16.819Z,611.00
2023-12-11T02:11:16.776Z,614.00
2023-12-11T02:12:16.775Z,614.00
2023-12-11T02:13:16.802Z,617.00
2023-12-11T02:14:16.787Z,612.00
2023-12-11T02:15:16.805Z,618.00
2023-12-11T02:16:16.876Z,616.00
2023-12-11T02:17:16.790Z,616.00
2023-12-11T02:18:16.962Z,614.00
2023-12-11T02:19:16.911Z,615.00
2023-12-11T02:20:16.804Z,612.00
2023-12-11T02:21:16.820Z,615.00
2023-12-11T02:22:16.864Z,614.00
2023-12-11T02:23:16.824Z,613.00
2023-12-11T02:24:16.836Z,615.00
2023-12-11T02:25:16.855Z,615.00
2023-12-11T02:26:16.839Z,615.00
2023-12-11T02:27:16.837Z,615.00
2023-12-11T02:28:16.863Z,613.00
2023-12-11T02:29:16.850Z,614.00
2023-12-11T02:30:16.860Z,619.00
2023-12-11T02:31:16.910Z,615.00
2023-12-11T02:32:16.848Z,615.00
2023-12-11T02:33:16.905Z,616.00
2023-12-11T02:34:16.864Z,618.00
2023-12-11T02:35:16.842Z,614.00
2023-12-11T02:36:16.869Z,614.00
2023-12-11T02:37:16.875Z,614.00
2023-12-11T02:38:16.911Z,613.00
2023-12-11T02:39:16.855Z,611.00
2023-12-11T02:40:16.926Z,615.00
2023-12-11T02:41:16.906Z,615.00
2023-12-11T02:42:16.882Z,615.00
2023-12-11T02:43:16.873Z,613.00
2023-12-11T02:44:16.856Z,617.00
2023-12-11T02:45:16.861Z,614.00
2023-12-11T02:46:16.920Z,614.00
2023-12-11T02:47:16.869Z,615.00
2023-12-11T02:48:16.975Z,613.00
2023-12-11T02:49:16.992Z,614.00
2023-12-11T02:50:16.864Z,615.00
2023-12-11T02:51:16.906Z,613.00
2023-12-11T02:52:16.906Z,614.00
2023-12-11T02:53:16.865Z,614.00
2023-12-11T02:54:16.901Z,614.00
2023-12-11T02:55:16.894Z,615.00
2023-12-11T02:56:16.874Z,615.00
2023-12-11T02:57:16.874Z,615.00
2023-12-11T02:58:16.909Z,617.00
2023-12-11T02:59:17.316Z,614.00
2023-12-11T03:00:16.879Z,612.00
2023-12-11T03:01:17.034Z,614.00
2023-12-11T03:02:16.903Z,614.00
2023-12-11T03:03:16.943Z,616.00
2023-12-11T03:04:16.993Z,612.00
2023-12-11T03:05:16.924Z,614.00
2023-12-11T03:06:16.956Z,615.00
2023-12-11T03:07:16.990Z,612.00
2023-12-11T03:08:16.936Z,613.00
2023-12-11T03:09:16.948Z,611.00
2023-12-11T03:10:17.030Z,614.00
2023-12-11T03:11:16.979Z,613.00
2023-12-11T03:12:16.974Z,616.00
2023-12-11T03:13:17.018Z,617.00
2023-12-11T03:14:16.968Z,617.00
2023-12-11T03:15:16.973Z,613.00
2023-12-11T03:16:17.023Z,613.00
2023-12-11T03:17:16.985Z,615.00
2023-12-11T03:18:17.057Z,613.00
2023-12-11T03:19:17.074Z,613.00
2023-12-11T03:20:17.007Z,612.00
2023-12-11T03:21:17.013Z,615.00
2023-12-11T03:22:17.023Z,613.00
2023-12-11T03:23:16.997Z,612.00
2023-12-11T03:24:17.006Z,616.00
2023-12-11T03:25:17.122Z,613.00
2023-12-11T03:26:17.029Z,614.00
2023-12-11T03:27:17.019Z,616.00
2023-12-11T03:28:17.041Z,615.00
2023-12-11T03:29:17.032Z,615.00
2023-12-11T03:30:17.031Z,615.00
2023-12-11T03:31:17.104Z,618.00
2023-12-11T03:32:17.043Z,613.00
2023-12-11T03:33:17.062Z,610.00
2023-12-11T03:34:17.064Z,615.00
2023-12-11T03:35:17.055Z,614.00
2023-12-11T03:36:17.057Z,614.00
2023-12-11T03:37:17.056Z,619.00
2023-12-11T03:38:17.062Z,614.00
2023-12-11T03:39:17.071Z,614.00
2023-12-11T03:40:17.112Z,615.00
2023-12-11T03:41:17.080Z,615.00
2023-12-11T03:42:17.079Z,615.00
2023-12-11T03:43:17.133Z,615.00
2023-12-11T03:44:17.078Z,615.00
2023-12-11T03:45:17.089Z,616.00
2023-12-11T03:46:17.141Z,616.00
2023-12-11T03:47:17.100Z,613.00
2023-12-11T03:48:17.173Z,617.00
2023-12-11T03:49:17.171Z,615.00
2023-12-11T03:50:17.093Z,616.00
2023-12-11T03:51:17.094Z,611.00
2023-12-11T03:52:17.133Z,613.00
2023-12-11T03:53:17.092Z,614.00
2023-12-11T03:54:17.106Z,616.00
2023-12-11T03:55:17.136Z,615.00
2023-12-11T03:56:17.121Z,614.00
2023-12-11T03:57:17.121Z,620.00
2023-12-11T03:58:17.210Z,612.00
2023-12-11T03:59:17.140Z,613.00
2023-12-11T04:00:17.156Z,614.00
2023-12-11T04:01:17.251Z,615.00
2023-12-11T04:02:17.343Z,609.00
2023-12-11T04:03:17.139Z,615.00
2023-12-11T04:04:17.257Z,617.00
2023-12-11T04:05:17.152Z,615.00
2023-12-11T04:06:17.168Z,611.00
2023-12-11T04:07:17.222Z,615.00
2023-12-11T04:08:17.199Z,615.00
2023-12-11T04:09:17.234Z,613.00
2023-12-11T04:10:17.291Z,616.00
2023-12-11T04:11:17.296Z,614.00
2023-12-11T04:12:17.339Z,614.00
2023-12-11T04:13:17.461Z,615.00
2023-12-11T04:14:17.430Z,617.00
2023-12-11T04:15:17.487Z,616.00
2023-12-11T04:16:17.545Z,615.00
2023-12-11T04:17:17.604Z,616.00
2023-12-11T04:18:17.693Z,614.00
2023-12-11T04:19:17.782Z,615.00
2023-12-11T04:20:17.726Z,616.00
2023-12-11T04:21:17.850Z,616.00
2023-12-11T04:22:17.856Z,615.00
2023-12-11T04:23:17.861Z,616.00
2023-12-11T04:24:17.921Z,613.00
2023-12-11T04:25:18.033Z,616.00
2023-12-11T04:26:18.017Z,614.00
2023-12-11T04:27:18.075Z,614.00
2023-12-11T04:28:18.152Z,614.00
2023-12-11T04:29:18.198Z,612.00
2023-12-11T04:30:18.313Z,613.00
2023-12-11T04:31:18.336Z,612.00
2023-12-11T04:32:18.390Z,614.00
2023-12-11T04:33:18.542Z,614.00
2023-12-11T04:34:18.503Z,615.00
2023-12-11T04:35:18.533Z,611.00
2023-12-11T04:36:18.607Z,612.00
2023-12-11T04:37:18.681Z,610.00
2023-12-11T04:38:18.705Z,608.00
2023-12-11T04:39:18.759Z,611.00
2023-12-11T04:40:18.841Z,614.00
2023-12-11T04:41:18.871Z,613.00
2023-12-11T04:42:18.952Z,612.00
2023-12-11T04:43:18.983Z,617.00
2023-12-11T04:44:19.041Z,617.00
2023-12-11T04:45:19.084Z,612.00
2023-12-11T04:46:19.193Z,611.00
2023-12-11T04:47:19.198Z,614.00
2023-12-11T04:48:19.350Z,613.00
2023-12-11T04:49:19.378Z,611.00
2023-12-11T04:50:19.378Z,612.00
2023-12-11T04:51:19.448Z,615.00
2023-12-11T04:52:19.528Z,613.00
2023-12-11T04:53:19.564Z,614.00
2023-12-11T04:54:19.615Z,613.00
2023-12-11T04:55:19.746Z,610.00
2023-12-11T04:56:19.745Z,613.00
2023-12-11T04:57:19.794Z,614.00
2023-12-11T04:58:19.881Z,614.00
2023-12-11T04:59:19.908Z,613.00
2023-12-11T05:00:19.982Z,612.00
2023-12-11T05:01:20.107Z,612.00
2023-12-11T05:02:20.102Z,611.00
2023-12-11T05:03:27.458Z,600.00
2023-12-11T05:04:27.448Z,600.00
2023-12-11T05:05:27.602Z,600.00
2023-12-11T05:06:27.486Z,600.00
2023-12-11T05:07:27.603Z,600.00
2023-12-11T05:08:30.118Z,602.00
2023-12-11T05:09:27.481Z,602.00
2023-12-11T05:10:27.498Z,602.00
2023-12-11T05:11:27.579Z,600.00
2023-12-11T05:12:27.506Z,596.00
2023-12-11T05:13:27.497Z,597.00
2023-12-11T05:14:27.489Z,600.00
2023-12-11T05:15:27.494Z,604.00
2023-12-11T05:16:28.297Z,605.00
2023-12-11T05:17:27.615Z,603.00
2023-12-11T05:18:27.504Z,603.00
2023-12-11T05:19:27.602Z,602.00
2023-12-11T05:20:27.518Z,602.00
2023-12-11T05:21:27.527Z,604.00
2023-12-11T05:22:27.573Z,602.00
2023-12-11T05:23:27.523Z,601.00
2023-12-11T05:24:27.531Z,604.00
2023-12-11T05:25:27.535Z,604.00
2023-12-11T05:26:27.541Z,602.00
2023-12-11T05:27:27.675Z,601.00
2023-12-11T05:28:27.569Z,600.00
2023-12-11T05:29:27.567Z,602.00
2023-12-11T05:30:27.628Z,601.00
2023-12-11T05:31:27.562Z,605.00
2023-12-11T05:32:27.625Z,603.00
2023-12-11T05:33:27.652Z,603.00
2023-12-11T05:34:27.661Z,604.00
2023-12-11T05:35:27.590Z,606.00
2023-12-11T05:36:27.612Z,603.00
2023-12-11T05:37:27.824Z,603.00
2023-12-11T05:38:27.614Z,603.00
2023-12-11T05:39:27.615Z,605.00
2023-12-11T05:40:27.745Z,603.00
2023-12-11T05:41:27.627Z,604.00
2023-12-11T05:42:27.613Z,603.00
2023-12-11T05:43:27.609Z,603.00
2023-12-11T05:44:27.635Z,602.00
2023-12-11T05:45:27.702Z,602.00
2023-12-11T05:46:27.752Z,606.00
2023-12-11T05:47:28.068Z,605.00
2023-12-11T05:48:27.990Z,601.00
2023-12-11T05:49:28.006Z,606.00
2023-12-11T05:50:27.986Z,608.00
2023-12-11T05:51:28.051Z,602.00
2023-12-11T05:52:29.096Z,606.00
2023-12-11T05:53:29.008Z,608.00
2023-12-11T05:54:28.243Z,605.00
2023-12-11T05:55:28.293Z,607.00
2023-12-11T05:56:28.403Z,608.00
2023-12-11T05:57:28.613Z,605.00
2023-12-11T05:58:28.486Z,607.00
2023-12-11T05:59:28.526Z,605.00
2023-12-11T06:00:28.602Z,607.00
2023-12-11T06:01:28.809Z,605.00
2023-12-11T06:02:28.709Z,603.00
2023-12-11T06:03:28.748Z,606.00
2023-12-11T06:04:28.801Z,603.00
2023-12-11T06:05:28.930Z,604.00
2023-12-11T06:06:30.943Z,607.00
2023-12-11T06:07:29.142Z,601.00
2023-12-11T06:08:28.912Z,604.00
2023-12-11T06:09:28.915Z,606.00
2023-12-11T06:10:28.955Z,606.00
2023-12-11T06:11:28.931Z,605.00
2023-12-11T06:12:28.930Z,602.00
2023-12-11T06:13:28.945Z,605.00
2023-12-11T06:14:28.960Z,604.00
2023-12-11T06:15:28.960Z,603.00
2023-12-11T06:16:28.981Z,607.00
2023-12-11T06:17:29.250Z,604.00
2023-12-11T06:18:29.023Z,604.00
2023-12-11T06:19:29.033Z,603.00
2023-12-11T06:20:28.973Z,605.00
2023-12-11T06:21:28.981Z,605.00
2023-12-11T06:22:28.988Z,602.00
2023-12-11T06:23:28.989Z,605.00
2023-12-11T06:24:28.999Z,603.00
2023-12-11T06:25:28.986Z,602.00
2023-12-11T06:26:28.992Z,602.00
2023-12-11T06:27:29.408Z,604.00
2023-12-11T06:28:29.000Z,601.00
2023-12-11T06:29:28.993Z,604.00
2023-12-11T06:30:29.084Z,603.00
2023-12-11T06:31:29.009Z,608.00
2023-12-11T06:32:29.015Z,610.00
2023-12-11T06:33:29.019Z,611.00
2023-12-11T06:34:29.153Z,607.00
2023-12-11T06:35:29.085Z,607.00
2023-12-11T06:36:29.019Z,610.00
2023-12-11T06:37:29.179Z,615.00
2023-12-11T06:38:29.068Z,617.00
2023-12-11T06:39:29.087Z,624.00
2023-12-11T06:40:29.044Z,627.00
2023-12-11T06:41:29.061Z,633.00
2023-12-11T06:42:29.055Z,632.00
2023-12-11T06:43:29.108Z,640.00
2023-12-11T06:44:29.064Z,643.00
2023-12-11T06:45:30.421Z,651.00
2023-12-11T06:46:29.101Z,664.00
2023-12-11T06:47:29.355Z,661.00
2023-12-11T06:48:29.093Z,673.00
2023-12-11T06:49:30.614Z,693.00
2023-12-11T06:50:29.161Z,720.00
2023-12-11T06:51:29.077Z,719.00
2023-12-11T06:52:29.031Z,734.00
2023-12-11T06:53:29.031Z,745.00
2023-12-11T06:54:29.028Z,756.00
2023-12-11T06:55:29.108Z,769.00
2023-12-11T06:56:29.029Z,789.00
2023-12-11T06:57:29.297Z,789.00
2023-12-11T06:58:29.069Z,813.00
2023-12-11T06:59:29.023Z,820.00
2023-12-11T07:00:29.035Z,828.00
2023-12-11T07:01:29.119Z,836.00
2023-12-11T07:02:29.145Z,855.00
2023-12-11T07:03:29.124Z,865.00
2023-12-11T07:04:29.364Z,871.00
2023-12-11T07:05:29.162Z,880.00
2023-12-11T07:06:29.056Z,891.00
2023-12-11T07:07:29.234Z,892.00
2023-12-11T07:08:29.032Z,903.00
2023-12-11T07:09:29.081Z,911.00
2023-12-11T07:10:29.139Z,929.00
2023-12-11T07:11:29.198Z,941.00
2023-12-11T07:12:29.263Z,944.00
2023-12-11T07:13:29.371Z,950.00
2023-12-11T07:14:29.442Z,960.00
2023-12-11T07:15:29.433Z,971.00
2023-12-11T07:16:29.490Z,982.00
2023-12-11T07:17:30.705Z,987.00
2023-12-11T07:18:29.695Z,998.00
2023-12-11T07:19:30.185Z,1001.00
2023-12-11T07:20:29.688Z,1011.00
2023-12-11T07:21:29.817Z,1019.00
2023-12-11T07:22:29.789Z,1034.00
2023-12-11T07:23:29.849Z,1051.00
2023-12-11T07:24:30.657Z,1065.00
2023-12-11T07:25:29.998Z,1087.00
2023-12-11T07:26:29.986Z,1102.00
2023-12-11T07:27:30.184Z,1119.00
2023-12-11T07:28:30.063Z,1121.00
2023-12-11T07:29:30.116Z,1134.00
2023-12-11T07:30:30.406Z,1144.00
2023-12-11T07:31:30.201Z,1148.00
2023-12-11T07:32:30.277Z,1154.00
2023-12-11T07:33:30.369Z,1163.00
2023-12-11T07:34:30.727Z,1170.00
2023-12-11T07:35:30.398Z,1171.00
2023-12-11T07:36:30.396Z,1189.00
2023-12-11T07:37:30.625Z,1210.00
2023-12-11T07:38:30.456Z,1233.00
2023-12-11T07:39:30.497Z,1234.00
2023-12-11T07:40:30.543Z,1236.00
2023-12-11T07:41:30.588Z,1233.00
2023-12-11T07:42:30.631Z,1241.00
2023-12-11T07:43:30.650Z,1234.00
2023-12-11T07:44:30.698Z,1235.00
2023-12-11T07:45:30.717Z,1242.00
2023-12-11T07:46:30.770Z,1208.00
2023-12-11T07:47:31.052Z,1191.00
2023-12-11T07:48:30.894Z,1187.00
2023-12-11T07:49:31.105Z,1156.00
2023-12-11T07:50:30.968Z,1173.00
2023-12-11T07:51:31.018Z,1123.00
2023-12-11T07:52:31.055Z,1091.00
2023-12-11T07:53:31.032Z,1075.00
2023-12-11T07:54:31.048Z,1063.00
2023-12-11T07:55:31.096Z,1051.00
2023-12-11T07:56:31.195Z,1040.00
2023-12-11T07:57:31.470Z,1034.00
2023-12-11T07:58:31.262Z,1016.00
2023-12-11T07:59:31.317Z,1010.00
2023-12-11T08:00:31.379Z,1007.00
2023-12-11T08:01:31.532Z,1003.00
2023-12-11T08:02:31.510Z,999.00
2023-12-11T08:03:31.636Z,997.00
2023-12-11T08:04:31.724Z,994.00
2023-12-11T08:05:31.717Z,994.00
2023-12-11T08:06:31.720Z,995.00
2023-12-11T08:07:32.064Z,999.00
2023-12-11T08:08:31.829Z,1001.00
2023-12-11T08:09:31.903Z,995.00
2023-12-11T08:10:32.131Z,981.00
2023-12-11T08:11:32.015Z,973.00
2023-12-11T08:12:32.105Z,951.00
2023-12-11T08:13:32.146Z,949.00
2023-12-11T08:14:32.208Z,932.00
2023-12-11T08:15:32.277Z,920.00
2023-12-11T08:16:32.341Z,910.00
2023-12-11T08:17:32.639Z,898.00
2023-12-11T08:18:32.522Z,890.00
2023-12-11T08:19:32.591Z,857.00
2023-12-11T08:20:32.585Z,797.00
2023-12-11T08:21:32.630Z,779.00
2023-12-11T08:22:32.704Z,751.00
2023-12-11T08:23:32.752Z,709.00
2023-12-11T08:24:32.808Z,685.00
2023-12-11T08:25:33.668Z,663.00
2023-12-11T08:26:32.933Z,648.00
2023-12-11T08:27:33.026Z,636.00
2023-12-11T08:28:33.097Z,629.00
2023-12-11T08:29:33.095Z,621.00
2023-12-11T08:30:33.155Z,618.00
2023-12-11T08:31:33.156Z,615.00
2023-12-11T08:32:34.191Z,608.00
2023-12-11T08:33:33.329Z,605.00
2023-12-11T08:34:34.165Z,602.00
2023-12-11T08:35:33.418Z,600.00
2023-12-11T08:36:33.481Z,602.00
2023-12-11T08:37:33.860Z,602.00
2023-12-11T08:38:33.591Z,600.00
2023-12-11T08:39:33.647Z,606.00
2023-12-11T08:40:33.708Z,604.00
2023-12-11T08:41:33.724Z,610.00
2023-12-11T08:42:36.322Z,612.00
2023-12-11T08:43:34.820Z,612.00
2023-12-11T08:44:33.767Z,612.00
2023-12-11T08:45:33.773Z,614.00
2023-12-11T08:46:33.782Z,615.00
2023-12-11T08:47:37.348Z,618.00
2023-12-11T08:48:34.986Z,612.00
2023-12-11T08:49:33.862Z,614.00
2023-12-11T08:50:33.754Z,619.00
2023-12-11T08:51:33.731Z,626.00
2023-12-11T08:52:33.742Z,636.00
2023-12-11T08:53:33.721Z,641.00
2023-12-11T08:54:33.723Z,642.00
2023-12-11T08:55:33.716Z,645.00
2023-12-11T08:56:33.754Z,647.00
2023-12-11T08:57:33.963Z,650.00
2023-12-11T08:58:33.898Z,656.00
2023-12-11T08:59:33.992Z,657.00
2023-12-11T09:00:33.964Z,664.00
2023-12-11T09:01:34.081Z,662.00
2023-12-11T09:02:34.053Z,670.00
2023-12-11T09:03:34.092Z,677.00
2023-12-11T09:04:34.253Z,686.00
2023-12-11T09:05:34.178Z,684.00
2023-12-11T09:06:34.171Z,694.00
2023-12-11T09:07:34.401Z,705.00
2023-12-11T09:08:34.231Z,715.00
2023-12-11T09:09:34.261Z,721.00
2023-12-11T09:10:34.299Z,730.00
2023-12-11T09:11:35.169Z,728.00
2023-12-11T09:12:34.417Z,732.00
2023-12-11T09:13:34.409Z,748.00
2023-12-11T09:14:34.399Z,751.00
2023-12-11T09:15:34.580Z,755.00
2023-12-11T09:16:34.530Z,764.00
2023-12-11T09:17:34.946Z,757.00
2023-12-11T09:18:34.747Z,758.00
2023-12-11T09:19:44.206Z,755.00
2023-12-11T09:20:35.792Z,756.00
2023-12-11T09:21:34.585Z,757.00
2023-12-11T09:22:34.555Z,757.00
2023-12-11T09:23:34.533Z,757.00
2023-12-11T09:24:34.517Z,747.00
2023-12-11T09:25:36.681Z,734.00
2023-12-11T09:26:34.553Z,743.00
2023-12-11T09:27:34.564Z,739.00
2023-12-11T09:28:41.561Z,723.00
2023-12-11T09:29:35.606Z,724.00
2023-12-11T09:30:34.596Z,720.00
2023-12-11T09:31:34.612Z,710.00
2023-12-11T09:32:34.642Z,712.00
2023-12-11T09:33:34.658Z,718.00
2023-12-11T09:34:34.794Z,709.00
2023-12-11T09:35:34.626Z,704.00
2023-12-11T09:36:34.558Z,705.00
2023-12-11T09:37:34.599Z,704.00
2023-12-11T09:38:34.516Z,682.00
2023-12-11T09:39:34.505Z,700.00
2023-12-11T09:40:34.506Z,692.00
2023-12-11T09:41:34.509Z,689.00
2023-12-11T09:42:35.195Z,694.00
2023-12-11T09:43:34.463Z,682.00
2023-12-11T09:44:34.455Z,677.00
2023-12-11T09:45:34.448Z,689.00
2023-12-11T09:46:34.441Z,683.00
2023-12-11T09:47:34.937Z,666.00
2023-12-11T09:48:35.248Z,680.00
2023-12-11T09:49:34.454Z,676.00
2023-12-11T09:50:34.488Z,672.00
2023-12-11T09:51:34.410Z,675.00
2023-12-11T09:52:35.715Z,667.00
2023-12-11T09:53:34.428Z,676.00
2023-12-11T09:54:34.453Z,672.00
2023-12-11T09:55:34.451Z,664.00
2023-12-11T09:56:34.478Z,664.00
2023-12-11T09:57:34.470Z,665.00
2023-12-11T09:58:34.490Z,664.00
2023-12-11T09:59:34.487Z,665.00
2023-12-11T10:00:34.516Z,663.00
2023-12-11T10:01:34.611Z,660.00
2023-12-11T10:02:34.590Z,660.00
2023-12-11T10:03:34.698Z,664.00
2023-12-11T10:04:35.249Z,665.00
2023-12-11T10:05:34.631Z,664.00
2023-12-11T10:06:34.670Z,662.00
2023-12-11T10:07:34.688Z,660.00
2023-12-11T10:08:34.712Z,661.00
2023-12-11T10:09:34.716Z,660.00
2023-12-11T10:10:34.974Z,662.00
2023-12-11T10:11:35.613Z,660.00
2023-12-11T10:12:34.787Z,662.00
2023-12-11T10:13:34.815Z,658.00
2023-12-11T10:14:34.838Z,656.00
2023-12-11T10:15:34.876Z,658.00
2023-12-11T10:16:34.920Z,657.00
2023-12-11T10:17:35.323Z,662.00
2023-12-11T10:18:35.042Z,658.00
2023-12-11T10:19:35.201Z,657.00
2023-12-11T10:20:35.906Z,655.00
2023-12-11T10:21:35.048Z,657.00
2023-12-11T10:22:35.056Z,659.00
2023-12-11T10:23:35.078Z,661.00
2023-12-11T10:24:35.122Z,664.00
2023-12-11T10:25:35.185Z,676.00
2023-12-11T10:26:35.201Z,672.00
2023-12-11T10:27:35.063Z,685.00
2023-12-11T10:28:35.802Z,687.00
2023-12-11T10:29:35.704Z,705.00
2023-12-11T10:30:35.074Z,708.00
2023-12-11T10:31:35.702Z,721.00
2023-12-11T10:32:35.119Z,724.00
2023-12-11T10:33:35.454Z,738.00
2023-12-11T10:34:36.215Z,753.00
2023-12-11T10:35:35.267Z,758.00
2023-12-11T10:36:35.282Z,762.00
2023-12-11T10:37:35.318Z,775.00
2023-12-11T10:38:35.365Z,779.00
2023-12-11T10:39:35.397Z,797.00
2023-12-11T10:40:35.444Z,800.00
2023-12-11T10:41:35.489Z,804.00
2023-12-11T10:42:35.515Z,818.00
2023-12-11T10:43:50.533Z,825.00
2023-12-11T10:44:46.662Z,826.00
2023-12-11T10:45:36.516Z,827.00
2023-12-11T10:46:35.584Z,831.00
2023-12-11T10:47:35.948Z,841.00
2023-12-11T10:48:35.578Z,860.00
2023-12-11T10:49:36.478Z,827.00
2023-12-11T10:50:35.441Z,835.00
2023-12-11T10:51:35.434Z,853.00
2023-12-11T10:52:35.477Z,874.00
2023-12-11T10:53:35.406Z,910.00
2023-12-11T10:54:35.401Z,906.00
2023-12-11T10:55:35.538Z,918.00
2023-12-11T10:56:35.400Z,916.00
2023-12-11T10:57:35.693Z,940.00
2023-12-11T10:58:35.307Z,945.00
2023-12-11T10:59:35.292Z,949.00
2023-12-11T11:00:35.318Z,948.00
2023-12-11T11:01:35.358Z,953.00
2023-12-11T11:02:35.288Z,977.00
2023-12-11T11:03:35.304Z,969.00
2023-12-11T11:04:35.238Z,1010.00
2023-12-11T11:05:35.313Z,1013.00
2023-12-11T11:06:35.213Z,1024.00
2023-12-11T11:07:35.532Z,1027.00
2023-12-11T11:08:35.155Z,1024.00
2023-12-11T11:09:35.142Z,1042.00
2023-12-11T11:10:35.131Z,1041.00
2023-12-11T11:11:35.112Z,1040.00
2023-12-11T11:12:36.737Z,1036.00
2023-12-11T11:13:35.148Z,1053.00
2023-12-11T11:14:35.163Z,1032.00
2023-12-11T11:15:35.204Z,981.00
2023-12-11T11:16:35.226Z,938.00
2023-12-11T11:17:35.449Z,973.00
2023-12-11T11:18:35.453Z,980.00
2023-12-11T11:19:35.388Z,937.00
2023-12-11T11:20:36.158Z,944.00
2023-12-11T11:21:36.450Z,943.00
2023-12-11T11:22:38.878Z,949.00
2023-12-11T11:23:37.170Z,942.00
2023-12-11T11:24:35.536Z,949.00
2023-12-11T11:25:35.604Z,952.00
2023-12-11T11:26:35.711Z,931.00
2023-12-11T11:27:35.403Z,942.00
2023-12-11T11:28:35.546Z,954.00
2023-12-11T11:29:35.373Z,953.00
2023-12-11T11:30:35.366Z,957.00
2023-12-11T11:31:35.373Z,952.00
2023-12-11T11:32:35.341Z,964.00
2023-12-11T11:33:35.323Z,970.00
2023-12-11T11:34:35.312Z,975.00
2023-12-11T11:35:35.251Z,961.00
2023-12-11T11:36:35.229Z,993.00
2023-12-11T11:37:35.277Z,1015.00
2023-12-11T11:38:35.206Z,1012.00
2023-12-11T11:39:37.800Z,1012.00
2023-12-11T11:40:35.342Z,1013.00
2023-12-11T11:41:35.219Z,1016.00
2023-12-11T11:42:35.148Z,1023.00
2023-12-11T11:43:35.118Z,1023.00
2023-12-11T11:44:35.106Z,1028.00
2023-12-11T11:45:35.086Z,1060.00
2023-12-11T11:46:35.067Z,1060.00
2023-12-11T11:47:35.220Z,1079.00
2023-12-11T11:48:35.111Z,1063.00
2023-12-11T11:49:35.077Z,1077.00
2023-12-11T11:50:34.982Z,1078.00
2023-12-11T11:51:34.960Z,1109.00
2023-12-11T11:52:34.978Z,1094.00
2023-12-11T11:53:34.925Z,1101.00
2023-12-11T11:54:34.905Z,1138.00
2023-12-11T11:55:34.999Z,1115.00
2023-12-11T11:56:34.872Z,1126.00
2023-12-11T11:57:34.846Z,1134.00
2023-12-11T11:58:34.825Z,1137.00
2023-12-11T11:59:34.795Z,1157.00
2023-12-11T12:00:34.804Z,1164.00
2023-12-11T12:01:35.943Z,1145.00
2023-12-11T12:02:34.744Z,1148.00
2023-12-11T12:03:34.773Z,1165.00
2023-12-11T12:04:34.823Z,1179.00
2023-12-11T12:05:34.676Z,1178.00
2023-12-11T12:06:34.666Z,1192.00
2023-12-11T12:07:34.662Z,1182.00
2023-12-11T12:08:34.624Z,1194.00
2023-12-11T12:09:34.611Z,1193.00
2023-12-11T12:10:34.634Z,1204.00
2023-12-11T12:11:34.551Z,1199.00
2023-12-11T12:12:34.534Z,1182.00
2023-12-11T12:13:34.597Z,1179.00
2023-12-11T12:14:35.249Z,1188.00
2023-12-11T12:15:34.496Z,1162.00
2023-12-11T12:16:34.474Z,1170.00
2023-12-11T12:17:35.026Z,1189.00
2023-12-11T12:18:34.616Z,1169.00
2023-12-11T12:19:34.634Z,1170.00
2023-12-11T12:20:34.410Z,1157.00
2023-12-11T12:21:34.395Z,1176.00
2023-12-11T12:22:34.629Z,1169.00
2023-12-11T12:23:34.456Z,1155.00
2023-12-11T12:24:34.355Z,1157.00
2023-12-11T12:25:34.403Z,1135.00